Time;durP1;ratioP1;P1;durP2;ratioP2;P2;SDS_P1;SDS_P2;PMS_P1;PMS_P2;Temp;Humidity;BMP_temperature;BMP_pressure;BME280_temperature;BME280_humidity;BME280_pressure;Samples;Min_cycle;Max_cycle;Signal;HPM_P1;HPM_P2
2023/05/05 00:00:52;;;;;;;10.60;7.20;;;13.00;99.90;;;;;;5150874;27;20034;-37
2023/05/05 00:03:20;;;;;;;10.63;6.75;;;13.00;99.90;;;;;;5145475;27;20518;-37
2023/05/05 00:05:47;;;;;;;10.40;6.80;;;13.00;99.90;;;;;;5147503;27;20481;-39
2023/05/05 00:08:12;;;;;;;8.52;6.57;;;13.00;99.90;;;;;;5147306;27;20045;-41
2023/05/05 00:10:38;;;;;;;10.95;7.00;;;13.00;99.90;;;;;;5146223;27;20042;-37
2023/05/05 00:13:04;;;;;;;7.55;6.78;;;13.00;99.90;;;;;;5144876;27;20114;-37
2023/05/05 00:15:30;;;;;;;9.20;6.70;;;12.90;99.90;;;;;;5151685;27;20499;-37
2023/05/05 00:17:55;;;;;;;8.75;7.15;;;13.00;99.90;;;;;;5154880;27;20042;-37
2023/05/05 00:20:21;;;;;;;8.88;7.07;;;12.90;99.90;;;;;;5150223;27;20030;-38
2023/05/05 00:22:47;;;;;;;9.88;7.00;;;13.00;99.90;;;;;;5151998;27;20042;-39
2023/05/05 00:25:13;;;;;;;7.57;6.82;;;13.00;99.90;;;;;;5149321;27;20026;-36
2023/05/05 00:27:39;;;;;;;9.13;6.65;;;13.00;99.90;;;;;;5155427;27;20050;-37
2023/05/05 00:30:05;;;;;;;7.90;6.95;;;13.00;99.90;;;;;;5152421;27;20109;-37
2023/05/05 00:32:31;;;;;;;10.23;6.85;;;13.00;99.90;;;;;;5157351;27;20072;-37
2023/05/05 00:34:56;;;;;;;9.60;6.35;;;13.00;99.90;;;;;;5157068;27;20456;-36
2023/05/05 00:37:22;;;;;;;9.05;7.00;;;13.00;99.90;;;;;;5150933;27;20035;-38
2023/05/05 00:39:48;;;;;;;9.02;7.18;;;13.00;99.90;;;;;;5146564;27;20122;-37
2023/05/05 00:42:14;;;;;;;8.93;6.63;;;13.00;99.90;;;;;;5148162;27;20487;-37
2023/05/05 00:44:40;;;;;;;9.75;7.13;;;12.90;99.90;;;;;;5137236;27;20031;-36
2023/05/05 00:47:11;;;;;;;12.20;7.60;;;12.90;99.90;;;;;;5151182;27;20130;-37
2023/05/05 00:49:37;;;;;;;12.85;6.80;;;12.90;99.90;;;;;;5144072;27;20077;-37
2023/05/05 00:52:05;;;;;;;8.45;7.13;;;12.90;99.90;;;;;;5156148;27;20073;-38
2023/05/05 00:54:34;;;;;;;7.40;6.47;;;12.90;99.90;;;;;;5151289;27;20034;-38
2023/05/05 00:57:03;;;;;;;10.50;6.95;;;12.80;99.90;;;;;;5143819;27;20039;-39
2023/05/05 00:59:31;;;;;;;10.18;7.00;;;12.80;99.90;;;;;;5142890;27;20034;-38
2023/05/05 01:01:57;;;;;;;6.95;6.28;;;12.80;99.90;;;;;;5154734;27;20034;-38
2023/05/05 01:04:25;;;;;;;8.32;6.70;;;12.80;99.90;;;;;;5151348;27;20029;-39
2023/05/05 01:07:21;;;;;;;11.02;7.60;;;12.80;99.90;;;;;;5155309;27;20038;-39
2023/05/05 01:09:50;;;;;;;12.93;6.68;;;12.80;99.90;;;;;;5152554;27;20038;-39
2023/05/05 01:12:37;;;;;;;11.05;6.78;;;12.80;99.90;;;;;;5146825;27;20026;-37
2023/05/05 01:15:19;;;;;;;13.75;7.40;;;12.80;99.90;;;;;;5156612;27;20086;-37
2023/05/05 01:17:59;;;;;;;8.80;6.85;;;12.80;99.90;;;;;;5150723;27;20129;-40
2023/05/05 01:20:40;;;;;;;9.32;6.97;;;12.80;99.90;;;;;;5150508;27;20034;-37
2023/05/05 01:23:08;;;;;;;8.10;6.80;;;12.80;99.90;;;;;;5148540;27;20045;-35
2023/05/05 01:25:40;;;;;;;11.05;7.07;;;12.80;99.90;;;;;;5153693;27;20083;-37
2023/05/05 01:28:10;;;;;;;8.88;7.78;;;12.90;99.90;;;;;;5152699;27;20042;-38
2023/05/05 01:30:54;;;;;;;10.25;7.15;;;12.90;99.90;;;;;;5143882;27;20044;-40
2023/05/05 01:33:27;;;;;;;7.85;6.80;;;12.90;99.90;;;;;;5142409;27;20062;-36
2023/05/05 01:35:56;;;;;;;11.88;7.20;;;12.90;99.90;;;;;;5142583;27;20037;-37
2023/05/05 01:38:29;;;;;;;8.52;7.18;;;12.90;99.90;;;;;;5137892;27;20388;-36
2023/05/05 01:41:16;;;;;;;11.18;8.18;;;12.90;99.90;;;;;;5140102;27;20122;-38
2023/05/05 01:43:45;;;;;;;8.50;7.40;;;12.80;99.90;;;;;;5147824;27;20031;-39
2023/05/05 01:46:13;;;;;;;10.68;8.10;;;12.90;99.90;;;;;;5137542;27;20400;-37
2023/05/05 01:48:41;;;;;;;10.18;7.78;;;12.80;99.90;;;;;;5150178;27;20034;-38
2023/05/05 01:51:08;;;;;;;13.20;7.80;;;12.80;99.90;;;;;;5127936;27;20053;-37
2023/05/05 01:53:35;;;;;;;10.52;7.03;;;12.80;99.90;;;;;;5143678;27;20087;-37
2023/05/05 01:56:01;;;;;;;8.48;7.68;;;12.70;99.90;;;;;;5158144;27;20043;-39
2023/05/05 01:58:29;;;;;;;10.48;7.65;;;12.80;99.90;;;;;;5155663;27;20030;-35
2023/05/05 02:00:56;;;;;;;11.82;8.13;;;12.70;99.90;;;;;;5154739;27;20034;-41
2023/05/05 02:03:23;;;;;;;9.18;7.03;;;12.70;99.90;;;;;;5149539;27;20038;-36
2023/05/05 02:05:52;;;;;;;8.25;7.25;;;12.80;99.90;;;;;;5143965;27;20495;-40
2023/05/05 02:08:19;;;;;;;9.25;7.75;;;12.70;99.90;;;;;;5156272;27;20037;-37
2023/05/05 02:10:46;;;;;;;9.38;7.78;;;12.70;99.90;;;;;;5149375;27;20030;-38
2023/05/05 02:13:14;;;;;;;9.48;7.45;;;12.60;99.90;;;;;;5135571;27;20027;-36
2023/05/05 02:15:42;;;;;;;8.25;7.43;;;12.70;99.90;;;;;;5143546;27;20023;-36
2023/05/05 02:18:09;;;;;;;10.18;7.70;;;12.50;99.90;;;;;;5142852;27;20038;-38
2023/05/05 02:20:37;;;;;;;9.07;7.80;;;12.60;99.90;;;;;;5150149;27;20916;-39
2023/05/05 02:23:05;;;;;;;8.00;7.30;;;12.50;99.90;;;;;;5153155;27;20045;-37
2023/05/05 02:25:44;;;;;;;10.07;7.55;;;12.50;99.90;;;;;;5140530;27;20491;-37
2023/05/05 02:28:19;;;;;;;9.60;7.43;;;12.40;99.90;;;;;;5149835;27;20165;-36
2023/05/05 02:30:54;;;;;;;9.30;7.90;;;12.50;99.90;;;;;;5145387;27;20030;-38
2023/05/05 02:33:21;;;;;;;11.00;7.68;;;12.40;99.90;;;;;;5145548;27;20103;-38
2023/05/05 02:35:49;;;;;;;8.60;7.60;;;12.30;99.90;;;;;;5147740;27;20398;-37
2023/05/05 02:38:16;;;;;;;10.48;7.70;;;12.30;99.90;;;;;;5151712;27;20029;-38
2023/05/05 02:40:43;;;;;;;8.07;7.28;;;12.30;99.90;;;;;;5146412;27;20038;-37
2023/05/05 02:43:13;;;;;;;8.52;7.35;;;12.30;99.90;;;;;;5154367;27;20030;-39
2023/05/05 02:45:40;;;;;;;9.75;7.10;;;12.40;99.90;;;;;;5147967;27;20540;-37
2023/05/05 02:48:06;;;;;;;10.57;7.25;;;12.40;99.90;;;;;;5152630;27;20117;-40
2023/05/05 02:50:32;;;;;;;9.15;7.63;;;12.30;99.90;;;;;;5148738;27;20030;-38
2023/05/05 02:52:59;;;;;;;8.55;7.10;;;12.40;99.90;;;;;;5137319;27;20038;-40
2023/05/05 02:55:50;;;;;;;9.75;7.65;;;12.40;99.90;;;;;;5155339;27;20542;-38
2023/05/05 02:58:35;;;;;;;9.63;7.22;;;12.40;99.90;;;;;;5155103;27;20479;-40
2023/05/05 03:01:15;;;;;;;10.30;7.25;;;12.40;99.90;;;;;;5144513;27;20042;-37
2023/05/05 03:03:51;;;;;;;11.90;7.80;;;12.40;99.90;;;;;;5147498;27;20043;-40
2023/05/05 03:06:20;;;;;;;9.75;8.07;;;12.40;99.90;;;;;;5138246;27;20038;-37
2023/05/05 03:08:55;;;;;;;8.55;7.70;;;12.30;99.90;;;;;;5139638;27;20039;-37
2023/05/05 03:11:35;;;;;;;9.05;7.35;;;12.40;99.90;;;;;;5151290;27;20026;-40
2023/05/05 03:14:17;;;;;;;8.70;7.40;;;12.30;99.90;;;;;;5153066;27;20440;-37
2023/05/05 03:16:45;;;;;;;8.77;7.80;;;12.30;99.90;;;;;;5141699;27;20044;-39
2023/05/05 03:19:15;;;;;;;11.95;7.68;;;12.30;99.90;;;;;;5146376;27;20039;-39
2023/05/05 03:21:41;;;;;;;11.98;7.70;;;12.30;99.90;;;;;;5144241;27;20034;-39
2023/05/05 03:24:25;;;;;;;9.50;8.50;;;12.20;99.90;;;;;;5153766;27;20556;-37
2023/05/05 03:26:50;;;;;;;9.00;8.00;;;12.20;99.90;;;;;;5134669;27;20480;-38
2023/05/05 03:29:16;;;;;;;10.27;8.07;;;12.20;99.90;;;;;;5146183;27;20037;-36
2023/05/05 03:31:42;;;;;;;8.70;7.78;;;12.20;99.90;;;;;;5146647;27;20041;-37
2023/05/05 03:34:08;;;;;;;9.20;7.57;;;12.20;99.90;;;;;;5134514;27;20559;-36
2023/05/05 03:36:34;;;;;;;9.65;8.05;;;12.20;99.90;;;;;;5146912;27;20042;-37
2023/05/05 03:39:00;;;;;;;9.95;8.10;;;12.20;99.90;;;;;;5147049;27;20038;-36
2023/05/05 03:41:26;;;;;;;9.30;7.72;;;12.20;99.90;;;;;;5143512;27;20189;-40
2023/05/05 03:43:52;;;;;;;9.43;8.20;;;12.20;99.90;;;;;;5151753;27;20089;-37
2023/05/05 03:46:18;;;;;;;9.50;7.90;;;12.20;99.90;;;;;;5159017;27;20109;-37
2023/05/05 03:48:44;;;;;;;10.30;8.32;;;12.20;99.90;;;;;;5143010;27;20039;-36
2023/05/05 03:51:10;;;;;;;9.70;7.55;;;12.20;99.90;;;;;;5164341;27;20038;-37
2023/05/05 03:53:37;;;;;;;10.15;8.30;;;12.20;99.90;;;;;;5149582;27;20071;-39
2023/05/05 03:56:02;;;;;;;8.63;7.75;;;12.20;99.90;;;;;;5157453;27;20034;-39
2023/05/05 03:58:28;;;;;;;11.05;7.57;;;12.20;99.90;;;;;;5156660;27;20041;-37
2023/05/05 04:00:54;;;;;;;10.48;8.07;;;12.20;99.90;;;;;;5148890;27;20065;-37
2023/05/05 04:03:20;;;;;;;11.25;8.48;;;12.20;99.90;;;;;;5150258;27;20038;-37
2023/05/05 04:05:45;;;;;;;9.70;8.48;;;12.10;99.90;;;;;;5149442;27;20038;-36
2023/05/05 04:08:11;;;;;;;10.85;8.40;;;12.10;99.90;;;;;;5143228;27;20038;-37
2023/05/05 04:10:37;;;;;;;12.48;8.65;;;12.00;99.90;;;;;;5150883;27;20030;-39
2023/05/05 04:13:03;;;;;;;11.88;8.98;;;12.00;99.90;;;;;;5142129;27;20027;-36
2023/05/05 04:15:28;;;;;;;9.43;8.43;;;12.00;99.90;;;;;;5143123;27;20038;-38
2023/05/05 04:17:54;;;;;;;9.77;8.48;;;11.90;99.90;;;;;;5146551;27;20452;-40
2023/05/05 04:20:20;;;;;;;9.57;8.50;;;12.00;99.90;;;;;;5145555;27;20041;-37
2023/05/05 04:22:46;;;;;;;9.05;8.05;;;11.80;99.90;;;;;;5147833;27;20061;-38
2023/05/05 04:25:11;;;;;;;13.68;9.15;;;11.80;99.90;;;;;;5147295;27;20042;-37
2023/05/05 04:27:37;;;;;;;10.77;8.20;;;11.80;99.90;;;;;;5144350;27;20049;-37
2023/05/05 04:30:03;;;;;;;9.52;8.70;;;11.90;99.90;;;;;;5148192;27;20499;-37
2023/05/05 04:32:29;;;;;;;8.90;7.90;;;11.90;99.90;;;;;;5152049;27;20384;-37
2023/05/05 04:34:55;;;;;;;9.13;8.15;;;11.80;99.90;;;;;;5138410;27;20043;-36
2023/05/05 04:37:20;;;;;;;9.65;7.93;;;11.80;99.90;;;;;;5145968;27;20114;-38
2023/05/05 04:39:46;;;;;;;10.73;7.93;;;11.90;99.90;;;;;;5144352;27;20039;-37
2023/05/05 04:42:12;;;;;;;11.60;8.35;;;12.00;99.90;;;;;;5153601;27;20034;-37
2023/05/05 04:44:38;;;;;;;12.95;8.93;;;11.90;99.90;;;;;;5149762;27;20034;-35
2023/05/05 04:47:04;;;;;;;8.85;7.95;;;12.00;99.90;;;;;;5151756;27;20029;-38
2023/05/05 04:49:30;;;;;;;12.75;9.13;;;12.00;99.90;;;;;;5151644;27;20063;-37
2023/05/05 04:51:56;;;;;;;12.45;8.73;;;12.00;99.90;;;;;;5146514;27;20388;-36
2023/05/05 04:54:22;;;;;;;9.68;8.35;;;12.00;99.90;;;;;;5144056;27;20038;-37
2023/05/05 04:56:48;;;;;;;8.20;7.25;;;12.10;99.90;;;;;;5152823;27;20030;-36
2023/05/05 04:59:14;;;;;;;9.88;7.72;;;12.20;99.90;;;;;;5145767;27;20041;-37
2023/05/05 05:01:41;;;;;;;13.43;8.70;;;12.10;99.90;;;;;;5147227;27;20034;-40
2023/05/05 05:04:07;;;;;;;9.23;8.20;;;12.10;99.90;;;;;;5148718;27;20034;-38
2023/05/05 05:06:33;;;;;;;8.98;7.78;;;12.20;99.90;;;;;;5132340;27;20072;-36
2023/05/05 05:08:59;;;;;;;10.93;8.60;;;12.10;99.90;;;;;;5134522;27;20034;-37
2023/05/05 05:11:26;;;;;;;9.68;8.00;;;12.20;99.90;;;;;;5147344;27;20113;-35
2023/05/05 05:13:51;;;;;;;12.43;7.90;;;12.20;99.90;;;;;;5142754;27;20094;-37
2023/05/05 05:16:17;;;;;;;10.48;7.97;;;12.20;99.90;;;;;;5149044;27;20039;-37
2023/05/05 05:18:43;;;;;;;9.20;8.20;;;12.10;99.90;;;;;;5146975;27;20038;-37
2023/05/05 05:21:09;;;;;;;9.20;8.35;;;12.30;99.90;;;;;;5150419;27;20109;-36
2023/05/05 05:23:35;;;;;;;11.27;9.23;;;12.20;99.90;;;;;;5150517;27;20087;-36
2023/05/05 05:26:01;;;;;;;9.68;8.50;;;12.10;99.90;;;;;;5146936;27;20022;-37
2023/05/05 05:28:27;;;;;;;13.45;8.23;;;12.20;99.90;;;;;;5142087;27;20121;-35
2023/05/05 05:30:53;;;;;;;8.82;7.90;;;12.00;99.90;;;;;;5151055;27;20524;-37
2023/05/05 05:33:18;;;;;;;9.18;8.07;;;12.10;99.90;;;;;;5150960;27;20090;-37
2023/05/05 05:35:44;;;;;;;12.05;9.20;;;12.10;99.90;;;;;;5154125;27;20041;-37
2023/05/05 05:38:10;;;;;;;11.52;9.13;;;12.20;99.90;;;;;;5154588;27;20042;-35
2023/05/05 05:40:36;;;;;;;9.43;8.20;;;12.10;99.90;;;;;;5143821;27;20052;-36
2023/05/05 05:43:03;;;;;;;11.25;8.80;;;12.20;99.90;;;;;;5147513;27;20030;-40
2023/05/05 05:45:28;;;;;;;10.65;8.65;;;12.20;99.90;;;;;;5162009;27;20039;-39
2023/05/05 05:47:54;;;;;;;13.23;8.70;;;12.20;99.90;;;;;;5143145;27;20034;-36
2023/05/05 05:50:20;;;;;;;9.43;8.52;;;12.40;99.90;;;;;;5147334;27;20113;-37
2023/05/05 05:52:46;;;;;;;10.50;9.00;;;12.50;99.90;;;;;;5150563;27;20030;-36
2023/05/05 05:55:12;;;;;;;11.38;8.02;;;12.50;99.90;;;;;;5147590;27;20037;-37
2023/05/05 05:57:37;;;;;;;10.68;8.60;;;12.80;99.90;;;;;;5146009;27;20067;-41
2023/05/05 06:00:04;;;;;;;11.80;8.40;;;12.80;99.90;;;;;;5154537;27;20093;-36
2023/05/05 06:02:31;;;;;;;10.75;8.68;;;12.80;99.90;;;;;;5145913;27;20030;-37
2023/05/05 06:04:57;;;;;;;11.38;8.57;;;12.90;99.90;;;;;;5154598;27;20042;-37
2023/05/05 06:07:23;;;;;;;9.07;8.20;;;12.80;99.90;;;;;;5150641;27;20071;-41
2023/05/05 06:09:48;;;;;;;10.40;9.23;;;12.80;99.90;;;;;;5168998;27;20078;-36
2023/05/05 06:12:14;;;;;;;11.07;9.20;;;12.90;99.90;;;;;;5147454;27;20045;-37
2023/05/05 06:14:40;;;;;;;12.15;8.52;;;12.90;99.90;;;;;;5149541;27;20038;-39
2023/05/05 06:17:06;;;;;;;11.07;8.88;;;12.80;99.90;;;;;;5149079;27;20143;-40
2023/05/05 06:19:31;;;;;;;11.63;9.23;;;12.80;99.90;;;;;;5148071;27;20990;-36
2023/05/05 06:21:57;;;;;;;11.50;9.32;;;12.80;99.90;;;;;;5154830;27;20034;-37
2023/05/05 06:24:23;;;;;;;10.18;8.77;;;12.90;99.90;;;;;;5153431;27;20048;-35
2023/05/05 06:26:49;;;;;;;9.25;8.45;;;13.00;99.90;;;;;;5145574;27;20082;-39
2023/05/05 06:29:14;;;;;;;10.57;9.00;;;13.30;99.90;;;;;;5147002;27;20511;-37
2023/05/05 06:31:40;;;;;;;11.52;9.30;;;13.20;99.90;;;;;;5144018;27;20126;-41
2023/05/05 06:34:06;;;;;;;11.88;9.32;;;13.40;99.90;;;;;;5149609;27;20662;-37
2023/05/05 06:36:32;;;;;;;13.25;9.52;;;13.40;99.90;;;;;;5148275;27;20037;-37
2023/05/05 06:38:57;;;;;;;10.85;9.65;;;13.40;99.90;;;;;;5142704;27;20038;-37
2023/05/05 06:41:23;;;;;;;12.73;9.93;;;13.50;99.90;;;;;;5139375;27;20091;-38
2023/05/05 06:43:49;;;;;;;13.77;9.82;;;13.40;99.90;;;;;;5146997;27;20038;-36
2023/05/05 06:46:15;;;;;;;12.05;10.07;;;13.50;99.90;;;;;;5148479;27;20042;-38
2023/05/05 06:48:40;;;;;;;12.25;9.95;;;13.50;99.90;;;;;;5152434;27;20235;-38
2023/05/05 06:51:06;;;;;;;12.40;9.95;;;13.40;99.90;;;;;;5139887;27;20030;-38
2023/05/05 06:53:32;;;;;;;10.90;9.80;;;13.60;99.90;;;;;;5135356;27;20514;-37
2023/05/05 06:55:57;;;;;;;14.07;10.10;;;13.60;99.90;;;;;;5149281;27;20026;-37
2023/05/05 06:58:23;;;;;;;12.60;10.82;;;13.90;99.90;;;;;;5152308;27;20023;-36
2023/05/05 07:00:49;;;;;;;14.00;10.63;;;13.70;99.90;;;;;;5152187;27;20475;-38
2023/05/05 07:03:15;;;;;;;11.80;10.60;;;13.80;99.90;;;;;;5148071;27;20031;-38
2023/05/05 07:05:40;;;;;;;12.32;11.02;;;14.10;99.90;;;;;;5147530;27;20405;-36
2023/05/05 07:08:07;;;;;;;12.38;11.05;;;14.20;99.90;;;;;;5147418;27;20030;-39
2023/05/05 07:10:33;;;;;;;12.73;11.43;;;14.10;99.90;;;;;;5154002;27;20030;-40
2023/05/05 07:12:59;;;;;;;13.95;11.38;;;14.40;99.90;;;;;;5144438;27;20109;-37
2023/05/05 07:15:25;;;;;;;12.35;11.05;;;14.40;99.90;;;;;;5149286;27;20034;-37
2023/05/05 07:17:51;;;;;;;12.73;11.43;;;14.60;99.90;;;;;;5142564;27;20506;-37
2023/05/05 07:20:16;;;;;;;14.20;12.02;;;14.80;99.90;;;;;;5143796;27;20070;-39
2023/05/05 07:22:42;;;;;;;14.13;11.70;;;15.00;99.90;;;;;;5166405;27;20038;-37
2023/05/05 07:25:08;;;;;;;13.43;12.02;;;15.00;99.90;;;;;;5141901;27;20461;-37
2023/05/05 07:27:35;;;;;;;12.82;11.55;;;15.30;99.90;;;;;;5162859;27;20058;-37
2023/05/05 07:30:01;;;;;;;14.10;12.75;;;15.40;99.90;;;;;;5141566;27;20114;-38
2023/05/05 07:32:27;;;;;;;16.13;12.68;;;15.80;99.90;;;;;;5141962;27;20152;-37
2023/05/05 07:34:52;;;;;;;13.20;11.90;;;15.80;99.90;;;;;;5150587;27;20041;-37
2023/05/05 07:37:18;;;;;;;14.20;11.73;;;15.90;99.90;;;;;;5146859;27;20034;-37
2023/05/05 07:39:47;;;;;;;13.40;12.20;;;16.00;99.90;;;;;;5142438;27;20049;-37
2023/05/05 07:42:14;;;;;;;16.88;12.82;;;16.40;99.90;;;;;;5143363;27;20070;-39
2023/05/05 07:44:40;;;;;;;14.40;12.90;;;16.30;99.90;;;;;;5140952;27;20031;-38
2023/05/05 07:47:05;;;;;;;13.40;12.10;;;16.50;99.90;;;;;;5146825;27;20129;-37
2023/05/05 07:49:31;;;;;;;14.90;12.48;;;16.70;99.90;;;;;;5142189;27;20019;-38
2023/05/05 07:51:57;;;;;;;14.32;12.82;;;16.90;99.90;;;;;;5146985;27;20038;-38
2023/05/05 07:54:26;;;;;;;14.13;12.60;;;17.10;99.90;;;;;;5144663;27;20033;-37
2023/05/05 07:56:51;;;;;;;14.40;12.93;;;17.30;99.90;;;;;;5142410;27;20058;-39
2023/05/05 07:59:17;;;;;;;16.42;12.98;;;17.30;99.90;;;;;;5127371;27;20407;-41
2023/05/05 08:01:43;;;;;;;18.55;12.27;;;17.40;99.90;;;;;;5147030;27;20083;-36
2023/05/05 08:04:08;;;;;;;14.20;11.98;;;17.70;99.90;;;;;;5143264;27;20042;-38
2023/05/05 08:06:34;;;;;;;15.38;13.73;;;17.90;99.90;;;;;;5142048;27;20066;-39
2023/05/05 08:09:01;;;;;;;14.48;12.80;;;18.10;99.90;;;;;;5144904;27;20034;-37
2023/05/05 08:11:26;;;;;;;14.30;12.45;;;18.40;99.90;;;;;;5139440;27;20030;-37
2023/05/05 08:13:52;;;;;;;16.85;12.63;;;18.30;99.90;;;;;;5151851;27;20101;-38
2023/05/05 08:16:18;;;;;;;14.02;12.48;;;18.40;99.90;;;;;;5153667;27;20045;-38
2023/05/05 08:18:43;;;;;;;14.38;12.68;;;18.60;99.90;;;;;;5144343;27;20072;-38
2023/05/05 08:21:10;;;;;;;14.90;13.48;;;18.70;99.90;;;;;;5155475;27;20089;-40
2023/05/05 08:23:37;;;;;;;13.95;12.50;;;18.90;99.90;;;;;;5151744;27;20043;-40
2023/05/05 08:26:08;;;;;;;16.95;13.88;;;19.20;99.90;;;;;;5141931;27;20511;-35
2023/05/05 08:28:35;;;;;;;14.35;12.55;;;19.40;99.90;;;;;;5151235;27;20023;-38
2023/05/05 08:31:03;;;;;;;14.25;12.82;;;19.70;99.90;;;;;;5146580;27;20031;-36
2023/05/05 08:33:28;;;;;;;16.75;13.10;;;19.90;99.90;;;;;;5148264;27;20426;-35
2023/05/05 08:35:54;;;;;;;13.75;12.38;;;19.90;99.90;;;;;;5149504;27;20063;-37
2023/05/05 08:38:20;;;;;;;14.52;13.00;;;20.00;99.90;;;;;;5154041;27;20034;-40
2023/05/05 08:40:45;;;;;;;16.00;12.00;;;20.20;99.90;;;;;;5143956;27;20041;-35
2023/05/05 08:43:11;;;;;;;13.70;12.30;;;20.50;99.90;;;;;;5148268;27;20159;-35
2023/05/05 08:45:40;;;;;;;14.13;12.68;;;20.70;99.90;;;;;;5146819;27;20045;-37
2023/05/05 08:48:07;;;;;;;13.88;12.48;;;20.90;99.90;;;;;;5150292;27;20047;-37
2023/05/05 08:50:36;;;;;;;15.68;14.07;;;21.10;99.90;;;;;;5140344;27;20037;-39
2023/05/05 08:53:10;;;;;;;14.90;12.48;;;21.30;99.90;;;;;;5155812;27;20031;-37
2023/05/05 08:55:49;;;;;;;14.85;13.45;;;21.30;99.90;;;;;;5146513;27;20388;-36
2023/05/05 08:58:17;;;;;;;14.75;12.10;;;21.40;99.90;;;;;;5145254;27;20045;-39
2023/05/05 09:00:44;;;;;;;15.60;13.95;;;21.50;99.90;;;;;;5151669;27;20041;-38
2023/05/05 09:03:10;;;;;;;17.23;13.63;;;21.40;99.90;;;;;;5147259;27;20030;-40
2023/05/05 09:05:37;;;;;;;16.52;13.02;;;21.50;99.90;;;;;;5152552;27;20042;-38
2023/05/05 09:08:08;;;;;;;14.95;13.48;;;21.70;99.90;;;;;;5147833;27;20030;-37
2023/05/05 09:10:35;;;;;;;15.80;14.05;;;22.10;99.90;;;;;;5152132;27;20067;-37
2023/05/05 09:13:04;;;;;;;15.98;14.38;;;22.30;99.90;;;;;;5153372;27;20376;-37
2023/05/05 09:15:31;;;;;;;15.98;13.88;;;22.40;99.90;;;;;;5144168;27;20030;-37
2023/05/05 09:17:59;;;;;;;16.08;13.68;;;22.50;99.90;;;;;;5139168;27;20034;-39
2023/05/05 09:20:33;;;;;;;16.00;14.32;;;22.50;99.90;;;;;;5143112;27;20036;-38
2023/05/05 09:23:13;;;;;;;15.73;14.15;;;22.60;99.90;;;;;;5139952;27;20030;-36
2023/05/05 09:25:47;;;;;;;15.43;13.93;;;22.80;99.90;;;;;;5144979;27;20038;-38
2023/05/05 09:28:15;;;;;;;16.02;14.48;;;23.00;99.90;;;;;;5129184;27;20070;-38
2023/05/05 09:30:43;;;;;;;16.50;14.73;;;23.10;99.90;;;;;;5149105;27;20038;-39
2023/05/05 09:33:09;;;;;;;17.25;15.43;;;23.20;99.90;;;;;;5148208;27;20536;-37
2023/05/05 09:35:54;;;;;;;15.02;13.63;;;23.40;99.90;;;;;;5149888;27;20038;-37
2023/05/05 09:38:23;;;;;;;15.75;14.15;;;23.60;92.30;;;;;;5155510;27;20114;-39
2023/05/05 09:40:53;;;;;;;15.70;13.90;;;23.80;92.20;;;;;;5136031;27;20060;-39
2023/05/05 09:43:22;;;;;;;15.02;13.43;;;23.90;90.60;;;;;;5139274;27;20117;-38
2023/05/05 09:45:49;;;;;;;15.48;13.88;;;24.00;92.00;;;;;;5155520;27;20034;-39
2023/05/05 09:48:28;;;;;;;15.18;13.63;;;24.10;94.10;;;;;;5147426;27;20034;-40
2023/05/05 09:50:55;;;;;;;15.63;14.13;;;24.50;89.50;;;;;;5146598;27;20033;-38
2023/05/05 09:53:21;;;;;;;17.00;14.35;;;24.50;86.60;;;;;;5154345;27;20033;-37
2023/05/05 09:55:53;;;;;;;14.50;13.10;;;24.50;86.60;;;;;;5147274;27;20077;-38
2023/05/05 09:58:36;;;;;;;15.43;13.60;;;24.80;81.60;;;;;;5145143;27;20492;-37
2023/05/05 10:01:02;;;;;;;15.82;14.30;;;25.10;90.90;;;;;;5148591;27;20044;-38
2023/05/05 10:03:28;;;;;;;15.32;13.82;;;25.40;79.30;;;;;;5154600;27;20034;-42
2023/05/05 10:05:55;;;;;;;18.50;13.43;;;25.30;76.10;;;;;;5146244;27;20039;-39
2023/05/05 10:08:26;;;;;;;12.93;11.73;;;25.00;72.40;;;;;;5143557;27;20065;-40
2023/05/05 10:11:01;;;;;;;13.80;12.43;;;25.20;75.70;;;;;;5144456;27;20030;-39
2023/05/05 10:13:28;;;;;;;14.23;12.75;;;25.20;74.60;;;;;;5142978;27;20441;-41
2023/05/05 10:15:56;;;;;;;13.05;11.65;;;25.40;70.70;;;;;;5147085;27;20041;-41
2023/05/05 10:18:27;;;;;;;14.82;13.25;;;25.60;67.80;;;;;;5148722;27;20026;-41
2023/05/05 10:21:03;;;;;;;14.52;13.13;;;25.50;63.80;;;;;;5145290;27;20485;-38
2023/05/05 10:23:44;;;;;;;15.05;13.48;;;25.10;63.90;;;;;;5154327;27;20237;-38
2023/05/05 10:26:12;;;;;;;13.93;12.60;;;24.90;66.10;;;;;;5139691;27;20037;-37
2023/05/05 10:28:53;;;;;;;12.98;11.77;;;24.50;68.10;;;;;;5144261;27;20050;-38
2023/05/05 10:31:27;;;;;;;10.25;9.13;;;24.40;66.90;;;;;;5135391;27;20039;-38
2023/05/05 10:34:05;;;;;;;9.63;8.70;;;24.60;72.30;;;;;;5146429;27;20109;-38
2023/05/05 10:36:35;;;;;;;8.23;7.40;;;24.70;70.40;;;;;;5147475;27;20444;-38
2023/05/05 10:39:09;;;;;;;8.02;7.22;;;24.70;68.00;;;;;;5139929;27;20475;-39
2023/05/05 10:41:36;;;;;;;7.95;5.93;;;24.60;65.60;;;;;;5143873;27;20425;-36
2023/05/05 10:44:09;;;;;;;6.88;5.90;;;24.30;65.10;;;;;;5136297;27;20040;-35
2023/05/05 10:46:43;;;;;;;8.13;7.32;;;24.60;64.70;;;;;;5136048;27;20034;-39
2023/05/05 10:49:32;;;;;;;6.80;5.45;;;24.60;63.00;;;;;;5118034;27;20030;-38
2023/05/05 10:52:17;;;;;;;5.93;4.70;;;24.70;61.00;;;;;;5147566;27;20057;-42
2023/05/05 10:55:01;;;;;;;6.13;5.53;;;25.10;64.30;;;;;;5152441;27;20049;-38
2023/05/05 10:57:29;;;;;;;6.03;4.90;;;25.20;60.40;;;;;;5154199;27;20040;-38
2023/05/05 10:59:55;;;;;;;5.15;4.57;;;25.10;60.70;;;;;;5146978;27;20073;-38
2023/05/05 11:02:26;;;;;;;6.63;4.82;;;25.30;61.10;;;;;;5144696;27;20069;-38
2023/05/05 11:05:20;;;;;;;5.88;4.47;;;25.20;59.50;;;;;;5134567;27;20057;-39
2023/05/05 11:07:50;;;;;;;4.72;3.95;;;25.40;60.30;;;;;;5138910;27;20392;-40
2023/05/05 11:10:22;;;;;;;4.50;3.38;;;25.30;57.90;;;;;;5151198;27;20042;-37
2023/05/05 11:12:51;;;;;;;3.42;2.65;;;25.50;59.30;;;;;;5152856;27;20034;-40
2023/05/05 11:15:23;;;;;;;4.55;3.50;;;25.80;57.60;;;;;;5142233;27;20031;-38
2023/05/05 11:17:49;;;;;;;5.93;3.58;;;26.00;56.80;;;;;;5134368;27;20447;-41
2023/05/05 11:20:15;;;;;;;5.60;3.55;;;26.10;56.10;;;;;;5141999;27;20035;-39
2023/05/05 11:23:02;;;;;;;4.90;3.75;;;25.90;55.30;;;;;;5140277;27;20432;-37
2023/05/05 11:25:35;;;;;;;5.05;3.03;;;25.50;55.00;;;;;;5147762;27;20027;-37
2023/05/05 11:28:08;;;;;;;3.97;2.95;;;25.10;55.10;;;;;;5151347;27;20041;-37
2023/05/05 11:30:57;;;;;;;3.75;3.20;;;24.80;54.80;;;;;;5140643;27;20490;-37
2023/05/05 11:33:38;;;;;;;3.97;2.88;;;24.60;55.30;;;;;;5166592;27;20035;-41
2023/05/05 11:36:05;;;;;;;4.00;2.90;;;24.20;55.70;;;;;;5152814;27;20049;-37
2023/05/05 11:38:46;;;;;;;4.00;3.10;;;24.20;56.60;;;;;;5150661;27;20050;-40
2023/05/05 11:41:31;;;;;;;3.67;3.00;;;23.90;57.70;;;;;;5144026;27;20078;-39
2023/05/05 11:44:28;;;;;;;5.28;3.00;;;23.80;58.20;;;;;;5144019;27;20062;-37
2023/05/05 11:46:57;;;;;;;4.78;3.60;;;23.80;58.70;;;;;;5150413;27;20038;-41
2023/05/05 11:49:35;;;;;;;4.65;3.75;;;23.60;59.10;;;;;;5163037;27;20035;-41
2023/05/05 11:52:06;;;;;;;4.43;3.67;;;23.20;60.60;;;;;;5153083;27;20603;-38
2023/05/05 11:54:33;;;;;;;4.88;3.20;;;23.10;62.20;;;;;;5146741;27;20035;-41
2023/05/05 11:57:06;;;;;;;5.43;3.88;;;22.90;64.40;;;;;;5139677;27;20081;-41
2023/05/05 11:59:32;;;;;;;4.88;3.70;;;22.80;67.00;;;;;;5150813;27;20042;-41
2023/05/05 12:01:59;;;;;;;4.72;3.42;;;22.60;69.70;;;;;;5145203;27;20493;-37
2023/05/05 12:04:25;;;;;;;4.57;3.17;;;22.50;73.00;;;;;;5149496;27;20088;-39
2023/05/05 12:06:50;;;;;;;3.50;2.97;;;22.40;76.90;;;;;;5155025;27;20062;-41
2023/05/05 12:09:18;;;;;;;4.40;3.50;;;22.20;79.40;;;;;;5169358;27;20065;-38
2023/05/05 12:11:54;;;;;;;7.95;3.50;;;22.10;80.30;;;;;;5151065;27;20033;-40
2023/05/05 12:14:20;;;;;;;5.97;3.72;;;22.00;91.30;;;;;;5151757;27;20033;-43
2023/05/05 12:16:55;;;;;;;5.57;3.40;;;22.00;91.20;;;;;;5143389;27;20031;-37
2023/05/05 12:19:21;;;;;;;5.45;3.75;;;22.00;94.60;;;;;;5145929;27;20043;-39
2023/05/05 12:21:47;;;;;;;5.55;3.72;;;21.90;92.40;;;;;;5158383;27;20170;-37
2023/05/05 12:24:13;;;;;;;5.07;3.65;;;21.70;93.80;;;;;;5152601;27;20129;-40
2023/05/05 12:26:38;;;;;;;6.68;3.30;;;21.60;96.50;;;;;;5150923;27;20038;-41
2023/05/05 12:29:04;;;;;;;5.90;3.17;;;21.50;98.90;;;;;;5152668;27;20072;-39
2023/05/05 12:31:37;;;;;;;5.75;3.20;;;21.60;99.90;;;;;;5151002;27;20023;-40
2023/05/05 12:34:07;;;;;;;5.10;2.63;;;21.50;99.90;;;;;;5144826;27;20069;-37
2023/05/05 12:36:34;;;;;;;4.00;3.33;;;21.50;99.90;;;;;;5153484;27;20034;-38
2023/05/05 12:39:00;;;;;;;7.13;3.50;;;21.30;99.90;;;;;;5162432;27;20053;-37
2023/05/05 12:41:26;;;;;;;5.50;3.65;;;21.10;99.90;;;;;;5151218;27;20059;-38
2023/05/05 12:43:56;;;;;;;3.75;3.38;;;21.10;99.90;;;;;;5143399;27;20037;-41
2023/05/05 12:46:22;;;;;;;4.60;3.65;;;21.00;99.90;;;;;;5156241;27;20022;-38